createdAt,value
2017-09-23T00:00:28.366Z,49.56
2017-09-23T00:02:30.937Z,49.55
2017-09-23T00:04:33.509Z,49.56
2017-09-23T00:06:36.005Z,49.54
2017-09-23T00:08:38.450Z,49.55
2017-09-23T00:10:41.068Z,49.60
2017-09-23T00:12:43.544Z,49.58
2017-09-23T00:14:46.066Z,49.58
2017-09-23T00:16:48.577Z,49.57
2017-09-23T00:18:51.008Z,49.57
2017-09-23T00:20:53.581Z,49.59
2017-09-23T00:22:56.287Z,49.58
2017-09-23T00:24:58.773Z,49.58
2017-09-23T00:27:01.274Z,49.58
2017-09-23T00:29:03.877Z,49.58
2017-09-23T00:31:06.338Z,49.63
2017-09-23T00:33:08.824Z,49.62
2017-09-23T00:35:11.603Z,49.59
2017-09-23T00:37:14.158Z,49.61
2017-09-23T00:39:16.695Z,49.61
2017-09-23T00:41:19.208Z,49.59
2017-09-23T00:43:21.680Z,49.60
2017-09-23T00:45:24.158Z,49.62
2017-09-23T00:47:26.722Z,49.62
2017-09-23T00:49:29.213Z,49.64
2017-09-23T00:51:31.716Z,49.64
2017-09-23T00:53:34.192Z,49.70
2017-09-23T00:55:36.656Z,49.67
2017-09-23T00:57:39.093Z,49.65
2017-09-23T00:59:41.739Z,49.62
2017-09-23T01:01:44.176Z,49.64
2017-09-23T01:03:46.657Z,49.67
2017-09-23T01:05:49.238Z,49.67
2017-09-23T01:07:51.713Z,49.70
2017-09-23T01:09:54.296Z,49.66
2017-09-23T01:11:56.796Z,49.63
2017-09-23T01:13:59.273Z,49.64
2017-09-23T01:16:01.740Z,49.63
2017-09-23T01:18:04.230Z,49.67
2017-09-23T01:20:06.687Z,49.69
2017-09-23T01:22:09.132Z,49.72
2017-09-23T01:24:11.663Z,49.71
2017-09-23T01:26:14.108Z,49.69
2017-09-23T01:28:16.541Z,49.71
2017-09-23T01:30:19.056Z,49.70
2017-09-23T01:32:21.501Z,49.69
2017-09-23T01:34:23.937Z,49.68
2017-09-23T01:36:26.798Z,49.70
2017-09-23T01:38:29.239Z,49.71
2017-09-23T01:40:31.676Z,49.73
2017-09-23T01:42:34.176Z,49.71
2017-09-23T01:44:36.625Z,49.72
2017-09-23T01:46:39.108Z,49.72
2017-09-23T01:48:41.573Z,49.73
2017-09-23T01:50:44.053Z,49.71
2017-09-23T01:52:46.507Z,49.70
2017-09-23T01:54:49.116Z,49.75
2017-09-23T01:56:51.560Z,49.72
2017-09-23T01:58:54.060Z,49.68
2017-09-23T02:00:56.766Z,49.70
2017-09-23T02:02:59.270Z,49.74
2017-09-23T02:05:01.710Z,49.73
2017-09-23T02:07:04.168Z,49.75
2017-09-23T02:09:06.610Z,49.74
2017-09-23T02:11:09.055Z,49.71
2017-09-23T02:13:11.729Z,49.67
2017-09-23T02:15:14.297Z,49.70
2017-09-23T02:17:16.732Z,49.72
2017-09-23T02:19:19.444Z,49.71
2017-09-23T02:21:21.982Z,49.68
2017-09-23T02:23:24.446Z,49.68
2017-09-23T02:25:26.979Z,49.74
2017-09-23T02:27:29.602Z,49.72
2017-09-23T02:29:32.104Z,49.73
2017-09-23T02:31:34.716Z,49.71
2017-09-23T02:33:37.210Z,49.71
2017-09-23T02:35:39.656Z,49.75
2017-09-23T02:37:42.597Z,49.78
2017-09-23T02:39:45.069Z,49.79
2017-09-23T02:41:47.709Z,49.78
2017-09-23T02:43:50.270Z,49.73
2017-09-23T02:45:52.793Z,49.74
2017-09-23T02:47:55.244Z,49.75
2017-09-23T02:49:57.728Z,49.78
2017-09-23T02:52:00.266Z,49.76
2017-09-23T02:54:02.803Z,49.77
2017-09-23T02:56:05.546Z,49.76
2017-09-23T02:58:07.999Z,49.75
2017-09-23T03:00:10.654Z,49.73
2017-09-23T03:02:13.124Z,49.72
2017-09-23T03:04:15.572Z,49.77
2017-09-23T03:06:18.090Z,49.71
2017-09-23T03:08:20.844Z,49.75
2017-09-23T03:10:23.303Z,49.78
2017-09-23T03:12:25.818Z,49.81
2017-09-23T03:14:28.324Z,49.78
2017-09-23T03:16:30.784Z,49.75
2017-09-23T03:18:33.296Z,49.78
2017-09-23T03:20:35.808Z,49.82
2017-09-23T03:22:38.247Z,49.80
2017-09-23T03:24:40.808Z,49.77
2017-09-23T03:26:43.297Z,49.78
2017-09-23T03:28:45.749Z,49.80
2017-09-23T03:30:48.181Z,49.78
2017-09-23T03:32:50.905Z,49.76
2017-09-23T03:34:53.346Z,49.78
2017-09-23T03:36:55.808Z,49.78
2017-09-23T03:38:58.574Z,49.78
2017-09-23T03:41:01.002Z,49.76
2017-09-23T03:43:03.444Z,49.78
2017-09-23T03:45:05.946Z,49.80
2017-09-23T03:47:08.386Z,49.80
2017-09-23T03:49:10.909Z,49.80
2017-09-23T03:51:13.413Z,49.79
2017-09-23T03:53:15.851Z,49.79
2017-09-23T03:55:18.474Z,49.84
2017-09-23T03:57:21.021Z,49.79
2017-09-23T03:59:23.452Z,49.81
2017-09-23T04:01:26.042Z,49.84
2017-09-23T04:03:28.565Z,49.84
2017-09-23T04:05:31.091Z,49.81
2017-09-23T04:07:33.554Z,49.75
2017-09-23T04:09:36.212Z,49.81
2017-09-23T04:11:38.656Z,49.77
2017-09-23T04:13:41.174Z,49.77
2017-09-23T04:15:43.682Z,49.77
2017-09-23T04:17:46.190Z,49.76
2017-09-23T04:19:48.636Z,49.82
2017-09-23T04:21:51.124Z,49.82
2017-09-23T04:23:53.564Z,49.82
2017-09-23T04:25:56.141Z,49.84
2017-09-23T04:27:58.628Z,49.84
2017-09-23T04:30:01.124Z,49.82
2017-09-23T04:32:03.654Z,49.80
2017-09-23T04:34:06.131Z,49.77
2017-09-23T04:36:08.608Z,49.77
2017-09-23T04:38:11.170Z,49.81
2017-09-23T04:40:13.946Z,49.90
2017-09-23T04:42:16.444Z,49.86
2017-09-23T04:44:18.917Z,49.83
2017-09-23T04:46:21.409Z,49.86
2017-09-23T04:48:23.904Z,49.87
2017-09-23T04:50:26.355Z,49.82
2017-09-23T04:52:28.874Z,49.75
2017-09-23T04:54:31.389Z,49.74
2017-09-23T04:56:33.853Z,49.73
2017-09-23T04:58:36.342Z,49.79
2017-09-23T05:00:38.837Z,49.84
2017-09-23T05:02:41.337Z,49.86
2017-09-23T05:04:43.831Z,49.84
2017-09-23T05:06:46.332Z,49.80
2017-09-23T05:08:48.877Z,49.86
2017-09-23T05:10:51.444Z,49.82
2017-09-23T05:12:53.924Z,49.80
2017-09-23T05:14:56.388Z,49.82
2017-09-23T05:16:58.919Z,49.85
2017-09-23T05:19:01.456Z,49.82
2017-09-23T05:21:03.917Z,49.81
2017-09-23T05:23:06.585Z,49.83
2017-09-23T05:25:09.033Z,49.84
2017-09-23T05:27:11.559Z,49.82
2017-09-23T05:29:14.209Z,49.84
2017-09-23T05:31:16.643Z,49.78
2017-09-23T05:33:19.164Z,49.81
2017-09-23T05:35:21.690Z,49.79
2017-09-23T05:37:24.195Z,49.78
2017-09-23T05:39:26.708Z,49.79
2017-09-23T05:41:29.517Z,49.83
2017-09-23T05:43:31.992Z,49.80
2017-09-23T05:45:34.428Z,49.82
2017-09-23T05:47:37.098Z,49.79
2017-09-23T05:49:39.537Z,49.78
2017-09-23T05:51:42.040Z,49.73
2017-09-23T05:53:44.594Z,49.70
2017-09-23T05:55:47.072Z,49.71
2017-09-23T05:57:49.526Z,49.72
2017-09-23T05:59:53.290Z,49.71
2017-09-23T06:01:55.825Z,49.71
2017-09-23T06:03:58.398Z,49.68
2017-09-23T06:06:00.917Z,49.68
2017-09-23T06:08:03.389Z,49.70
2017-09-23T06:10:05.841Z,49.70
2017-09-23T06:12:08.518Z,49.68
2017-09-23T06:14:10.953Z,49.66
2017-09-23T06:16:13.460Z,49.70
2017-09-23T06:18:16.098Z,49.67
2017-09-23T06:20:18.571Z,49.73
2017-09-23T06:22:21.032Z,49.73
2017-09-23T06:24:23.509Z,49.77
2017-09-23T06:26:25.953Z,49.75
2017-09-23T06:28:28.452Z,49.75
2017-09-23T06:30:30.933Z,49.66
2017-09-23T06:32:33.528Z,49.65
2017-09-23T06:34:36.017Z,49.62
2017-09-23T06:36:38.700Z,49.67
2017-09-23T06:38:41.206Z,49.67
2017-09-23T06:40:43.787Z,49.70
2017-09-23T06:42:46.563Z,49.68
2017-09-23T06:44:49.029Z,49.67
2017-09-23T06:46:51.464Z,49.67
2017-09-23T06:48:54.187Z,49.60
2017-09-23T06:50:56.641Z,49.55
2017-09-23T06:52:59.088Z,49.49
2017-09-23T06:55:01.560Z,49.42
2017-09-23T06:57:04.014Z,49.40
2017-09-23T06:59:06.680Z,49.33
2017-09-23T07:01:09.350Z,49.30
2017-09-23T07:03:11.876Z,49.31
2017-09-23T07:05:14.328Z,49.29
2017-09-23T07:07:17.022Z,49.24
2017-09-23T07:09:19.490Z,49.31
2017-09-23T07:11:21.942Z,49.34
2017-09-23T07:13:24.636Z,49.33
2017-09-23T07:15:27.080Z,49.31
2017-09-23T07:17:29.536Z,49.29
2017-09-23T07:19:32.098Z,49.25
2017-09-23T07:21:34.576Z,49.26
2017-09-23T07:23:37.028Z,49.32
2017-09-23T07:25:39.576Z,49.37
2017-09-23T07:27:42.089Z,49.37
2017-09-23T07:29:44.561Z,49.39
2017-09-23T07:31:47.081Z,49.45
2017-09-23T07:33:49.589Z,49.49
2017-09-23T07:35:52.120Z,49.47
2017-09-23T07:37:54.732Z,49.48
2017-09-23T07:39:57.260Z,49.51
2017-09-23T07:41:59.732Z,49.44
2017-09-23T07:44:02.714Z,49.39
2017-09-23T07:46:05.168Z,49.35
2017-09-23T07:48:07.613Z,49.30
2017-09-23T07:50:10.167Z,49.32
2017-09-23T07:52:12.695Z,49.34
2017-09-23T07:54:15.270Z,49.28
2017-09-23T07:56:17.832Z,49.23
2017-09-23T07:58:20.312Z,49.21
2017-09-23T08:00:23.091Z,49.15
2017-09-23T08:02:25.633Z,49.12
2017-09-23T08:04:28.082Z,49.09
2017-09-23T08:06:30.601Z,49.07
2017-09-23T08:08:33.224Z,49.01
2017-09-23T08:10:35.749Z,49.03
2017-09-23T08:12:38.210Z,49.00
2017-09-23T08:14:40.721Z,48.96
2017-09-23T08:16:43.182Z,48.93
2017-09-23T08:18:45.769Z,48.95
2017-09-23T08:20:48.243Z,48.97
2017-09-23T08:22:50.793Z,49.02
2017-09-23T08:24:53.446Z,49.01
2017-09-23T08:26:56.019Z,48.99
2017-09-23T08:28:58.466Z,49.03
2017-09-23T08:31:00.907Z,49.09
2017-09-23T08:33:03.465Z,49.07
2017-09-23T08:35:06.128Z,49.06
2017-09-23T08:37:08.647Z,49.09
2017-09-23T08:39:11.194Z,49.10
2017-09-23T08:41:13.652Z,49.13
2017-09-23T08:43:16.093Z,49.14
2017-09-23T08:45:18.838Z,49.06
2017-09-23T08:47:21.489Z,49.02
2017-09-23T08:49:23.943Z,48.98
2017-09-23T08:51:26.439Z,48.99
2017-09-23T08:53:28.958Z,48.97
2017-09-23T08:55:31.427Z,48.98
2017-09-23T08:57:34.198Z,48.88
2017-09-23T08:59:36.662Z,48.93
2017-09-23T09:01:39.139Z,48.91
2017-09-23T09:03:41.627Z,48.92
2017-09-23T09:05:44.069Z,48.95
2017-09-23T09:07:46.505Z,48.94
2017-09-23T09:09:49.059Z,48.97
2017-09-23T09:11:51.537Z,48.99
2017-09-23T09:13:54.062Z,48.97
2017-09-23T09:15:56.591Z,48.94
2017-09-23T09:17:59.020Z,48.94
2017-09-23T09:20:01.493Z,48.93
2017-09-23T09:22:04.093Z,48.96
2017-09-23T09:24:06.564Z,48.93
2017-09-23T09:26:09.090Z,48.94
2017-09-23T09:28:11.616Z,48.85
2017-09-23T09:30:14.132Z,48.90
2017-09-23T09:32:16.640Z,48.93
2017-09-23T09:34:19.138Z,49.04
2017-09-23T09:36:21.618Z,49.05
2017-09-23T09:38:24.116Z,49.03
2017-09-23T09:40:26.644Z,49.01
2017-09-23T09:42:29.105Z,49.02
2017-09-23T09:44:31.577Z,48.99
2017-09-23T09:46:34.406Z,48.95
2017-09-23T09:48:36.873Z,48.91
2017-09-23T09:50:39.388Z,48.89
2017-09-23T09:52:41.868Z,48.88
2017-09-23T09:54:44.305Z,48.88
2017-09-23T09:56:46.761Z,48.93
2017-09-23T09:58:49.364Z,48.97
2017-09-23T10:00:51.809Z,49.02
2017-09-23T10:02:54.312Z,49.02
2017-09-23T10:04:56.940Z,49.02
2017-09-23T10:06:59.516Z,49.05
2017-09-23T10:09:02.089Z,49.04
2017-09-23T10:11:04.578Z,49.05
2017-09-23T10:13:07.058Z,48.96
2017-09-23T10:15:09.543Z,48.93
2017-09-23T10:17:12.080Z,48.86
2017-09-23T10:19:14.507Z,48.89
2017-09-23T10:21:17.154Z,48.94
2017-09-23T10:23:19.710Z,48.96
2017-09-23T10:25:22.267Z,48.92
2017-09-23T10:27:24.743Z,48.96
2017-09-23T10:29:27.245Z,48.97
2017-09-23T10:31:29.685Z,48.96
2017-09-23T10:33:32.176Z,48.96
2017-09-23T10:35:34.636Z,48.96
2017-09-23T10:37:37.231Z,48.99
2017-09-23T10:39:39.788Z,49.04
2017-09-23T10:41:42.277Z,49.07
2017-09-23T10:43:44.717Z,49.05
2017-09-23T10:45:47.268Z,49.03
2017-09-23T10:47:50.205Z,49.00
2017-09-23T10:49:52.693Z,48.98
2017-09-23T10:51:55.267Z,48.96
2017-09-23T10:53:57.870Z,48.96
2017-09-23T10:56:00.311Z,48.97
2017-09-23T10:58:02.773Z,48.96
2017-09-23T11:00:05.275Z,48.93
2017-09-23T11:02:07.747Z,48.91
2017-09-23T11:04:10.217Z,48.89
2017-09-23T11:06:12.718Z,48.88
2017-09-23T11:08:15.166Z,48.92
2017-09-23T11:10:17.747Z,48.86
2017-09-23T11:12:20.348Z,48.79
2017-09-23T11:14:22.817Z,48.76
2017-09-23T11:16:25.348Z,48.72
2017-09-23T11:18:27.869Z,48.73
2017-09-23T11:20:30.381Z,48.71
2017-09-23T11:22:32.898Z,48.66
2017-09-23T11:24:35.376Z,48.56
2017-09-23T11:26:37.901Z,48.55
2017-09-23T11:28:40.358Z,48.48
2017-09-23T11:30:43.045Z,48.49
2017-09-23T11:32:45.484Z,48.51
2017-09-23T11:34:48.027Z,48.47
2017-09-23T11:36:50.528Z,48.48
2017-09-23T11:38:52.970Z,48.41
2017-09-23T11:40:55.704Z,48.52
2017-09-23T11:42:58.169Z,48.54
2017-09-23T11:45:00.730Z,48.57
2017-09-23T11:47:03.319Z,48.54
2017-09-23T11:49:05.917Z,48.57
2017-09-23T11:51:08.395Z,48.54
2017-09-23T11:53:10.837Z,48.53
2017-09-23T11:55:13.357Z,48.62
2017-09-23T11:57:15.874Z,48.62
2017-09-23T11:59:18.330Z,48.58
2017-09-23T12:01:20.918Z,48.63
2017-09-23T12:03:23.373Z,48.56
2017-09-23T12:05:25.933Z,48.62
2017-09-23T12:07:28.392Z,48.55
2017-09-23T12:09:30.969Z,48.51
2017-09-23T12:11:33.415Z,48.56
2017-09-23T12:13:35.880Z,48.59
2017-09-23T12:15:38.326Z,48.66
2017-09-23T12:17:40.764Z,48.65
2017-09-23T12:19:43.432Z,48.71
2017-09-23T12:21:45.925Z,48.72
2017-09-23T12:23:48.417Z,48.69
2017-09-23T12:25:50.885Z,48.71
2017-09-23T12:27:53.335Z,48.68
2017-09-23T12:29:55.773Z,48.69
2017-09-23T12:31:58.279Z,48.67
2017-09-23T12:34:00.726Z,48.66
2017-09-23T12:36:03.210Z,48.64
2017-09-23T12:38:05.702Z,48.70
2017-09-23T12:40:08.161Z,48.67
2017-09-23T12:42:10.603Z,48.68
2017-09-23T12:44:13.100Z,48.62
2017-09-23T12:46:15.567Z,48.61
2017-09-23T12:48:18.039Z,48.57
2017-09-23T12:50:20.899Z,48.68
2017-09-23T12:52:23.403Z,48.67
2017-09-23T12:54:25.939Z,48.54
2017-09-23T12:56:28.571Z,48.48
2017-09-23T12:58:31.000Z,48.33
2017-09-23T13:00:33.440Z,48.39
2017-09-23T13:02:36.088Z,48.32
2017-09-23T13:04:38.552Z,48.33
2017-09-23T13:06:41.024Z,48.27
2017-09-23T13:08:43.529Z,48.33
2017-09-23T13:10:45.963Z,48.29
2017-09-23T13:12:48.498Z,48.39
2017-09-23T13:14:50.976Z,48.48
2017-09-23T13:16:53.438Z,48.47
2017-09-23T13:18:56.012Z,48.62
2017-09-23T13:20:58.525Z,48.59
2017-09-23T13:23:00.976Z,48.63
2017-09-23T13:25:03.418Z,48.61
2017-09-23T13:27:06.247Z,48.57
2017-09-23T13:29:08.676Z,48.59
2017-09-23T13:31:11.110Z,48.50
2017-09-23T13:33:13.572Z,48.61
2017-09-23T13:35:16.028Z,48.63
2017-09-23T13:37:18.552Z,48.64
2017-09-23T13:39:21.053Z,48.70
2017-09-23T13:41:23.494Z,48.74
2017-09-23T13:43:25.961Z,48.74
2017-09-23T13:45:28.533Z,48.72
2017-09-23T13:47:31.044Z,48.77
2017-09-23T13:49:33.476Z,48.79
2017-09-23T13:51:36.194Z,48.82
2017-09-23T13:53:38.676Z,48.87
2017-09-23T13:55:41.220Z,48.86
2017-09-23T13:57:43.746Z,48.86
2017-09-23T13:59:46.176Z,48.87
2017-09-23T14:01:48.603Z,48.94
2017-09-23T14:03:51.124Z,48.99
2017-09-23T14:05:53.620Z,48.96
2017-09-23T14:07:56.133Z,48.96
2017-09-23T14:09:58.734Z,48.97
2017-09-23T14:12:01.215Z,49.00
2017-09-23T14:14:03.708Z,49.00
2017-09-23T14:16:06.159Z,48.97
2017-09-23T14:18:08.607Z,48.97
2017-09-23T14:20:11.248Z,48.99
2017-09-23T14:22:13.967Z,48.94
2017-09-23T14:24:16.406Z,48.91
2017-09-23T14:26:18.844Z,48.97
2017-09-23T14:28:21.390Z,49.01
2017-09-23T14:30:23.821Z,48.96
2017-09-23T14:32:26.270Z,48.97
2017-09-23T14:34:28.784Z,48.94
2017-09-23T14:36:31.221Z,48.98
2017-09-23T14:38:33.652Z,48.94
2017-09-23T14:40:36.109Z,48.96
2017-09-23T14:42:38.608Z,48.94
2017-09-23T14:44:41.063Z,48.88
2017-09-23T14:46:43.521Z,48.91
2017-09-23T14:48:45.953Z,48.96
2017-09-23T14:50:48.488Z,48.93
2017-09-23T14:52:51.076Z,48.90
2017-09-23T14:54:53.518Z,48.90
2017-09-23T14:56:56.013Z,48.86
2017-09-23T14:58:58.484Z,48.91
2017-09-23T15:01:01.051Z,48.89
2017-09-23T15:03:03.532Z,48.94
2017-09-23T15:05:05.999Z,48.92
2017-09-23T15:07:08.445Z,48.94
2017-09-23T15:09:10.940Z,48.92
2017-09-23T15:11:13.412Z,48.98
2017-09-23T15:13:15.852Z,49.00
2017-09-23T15:15:18.279Z,48.97
2017-09-23T15:17:20.874Z,48.88
2017-09-23T15:19:23.314Z,48.88
2017-09-23T15:21:25.772Z,48.92
2017-09-23T15:23:28.497Z,48.99
2017-09-23T15:25:31.540Z,49.00
2017-09-23T15:27:34.001Z,49.00
2017-09-23T15:29:36.472Z,48.99
2017-09-23T15:31:38.944Z,49.02
2017-09-23T15:33:41.412Z,49.04
2017-09-23T15:35:43.904Z,49.07
2017-09-23T15:37:46.393Z,49.09
2017-09-23T15:39:48.910Z,49.10
2017-09-23T15:41:51.477Z,49.11
2017-09-23T15:43:53.925Z,49.10
2017-09-23T15:45:56.527Z,49.16
2017-09-23T15:47:59.055Z,49.18
2017-09-23T15:50:01.568Z,49.16
2017-09-23T15:52:04.009Z,49.17
2017-09-23T15:54:06.889Z,49.20
2017-09-23T15:56:09.339Z,49.18
2017-09-23T15:58:11.778Z,49.22
2017-09-23T16:00:14.247Z,49.23
2017-09-23T16:02:16.713Z,49.23
2017-09-23T16:04:19.200Z,49.25
2017-09-23T16:06:21.949Z,49.24
2017-09-23T16:08:24.388Z,49.27
2017-09-23T16:10:26.819Z,49.28
2017-09-23T16:12:29.357Z,49.29
2017-09-23T16:14:31.796Z,49.29
2017-09-23T16:16:34.317Z,49.27
2017-09-23T16:18:36.962Z,49.27
2017-09-23T16:20:39.459Z,49.29
2017-09-23T16:22:41.956Z,49.28
2017-09-23T16:24:44.529Z,49.28
2017-09-23T16:26:46.985Z,49.29
2017-09-23T16:28:49.500Z,49.28
2017-09-23T16:30:52.004Z,49.33
2017-09-23T16:32:54.468Z,49.33
2017-09-23T16:34:56.896Z,49.38
2017-09-23T16:37:00.288Z,49.38
2017-09-23T16:39:02.751Z,49.38
2017-09-23T16:41:05.234Z,49.42
2017-09-23T16:43:07.710Z,49.44
2017-09-23T16:45:10.196Z,49.44
2017-09-23T16:47:12.636Z,49.46
2017-09-23T16:49:15.181Z,49.48
2017-09-23T16:51:17.628Z,49.46
2017-09-23T16:53:20.097Z,49.48
2017-09-23T16:55:22.892Z,49.53
2017-09-23T16:57:25.336Z,49.54
2017-09-23T16:59:27.764Z,49.55
2017-09-23T17:01:30.221Z,49.57
2017-09-23T17:03:32.669Z,49.57
2017-09-23T17:05:35.157Z,49.58
2017-09-23T17:07:37.640Z,49.58
2017-09-23T17:09:40.161Z,49.63
2017-09-23T17:11:42.619Z,49.62
2017-09-23T17:13:45.232Z,49.64
2017-09-23T17:15:47.663Z,49.67
2017-09-23T17:17:50.100Z,49.65
2017-09-23T17:19:52.561Z,49.66
2017-09-23T17:21:55.023Z,49.69
2017-09-23T17:23:57.557Z,49.68
2017-09-23T17:26:00.273Z,49.71
2017-09-23T17:28:02.803Z,49.69
2017-09-23T17:30:05.340Z,49.74
2017-09-23T17:32:07.808Z,49.75
2017-09-23T17:34:10.273Z,49.76
2017-09-23T17:36:12.723Z,49.76
2017-09-23T17:38:15.458Z,49.77
2017-09-23T17:40:18.024Z,49.80
2017-09-23T17:42:20.465Z,49.78
2017-09-23T17:44:23.915Z,49.80
2017-09-23T17:46:26.415Z,49.77
2017-09-23T17:48:28.936Z,49.79
2017-09-23T17:50:31.560Z,49.76
2017-09-23T17:52:34.080Z,49.78
2017-09-23T17:54:36.528Z,49.82
2017-09-23T17:56:39.227Z,49.76
2017-09-23T17:58:41.695Z,49.73
2017-09-23T18:00:44.165Z,49.73
2017-09-23T18:02:46.720Z,49.73
2017-09-23T18:04:49.210Z,49.75
2017-09-23T18:06:51.762Z,49.71
2017-09-23T18:08:54.272Z,49.73
2017-09-23T18:10:56.824Z,49.75
2017-09-23T18:12:59.364Z,49.72
2017-09-23T18:15:01.866Z,49.74
2017-09-23T18:17:04.308Z,49.73
2017-09-23T18:19:06.761Z,49.70
2017-09-23T18:21:09.486Z,49.71
2017-09-23T18:23:11.942Z,49.73
2017-09-23T18:25:14.628Z,49.76
2017-09-23T18:27:17.161Z,49.75
2017-09-23T18:29:19.716Z,49.74
2017-09-23T18:31:22.253Z,49.72
2017-09-23T18:33:24.864Z,49.73
2017-09-23T18:35:27.324Z,49.73
2017-09-23T18:37:29.769Z,49.74
2017-09-23T18:39:32.258Z,49.73
2017-09-23T18:41:34.745Z,49.75
2017-09-23T18:43:37.499Z,49.76
2017-09-23T18:45:40.067Z,49.75
2017-09-23T18:47:42.554Z,49.75
2017-09-23T18:49:46.899Z,49.73
2017-09-23T18:51:49.811Z,49.73
2017-09-23T18:53:52.293Z,49.72
2017-09-23T18:55:54.863Z,49.74
2017-09-23T18:57:57.717Z,49.74
2017-09-23T19:00:00.224Z,49.74
2017-09-23T19:02:02.665Z,49.75
2017-09-23T19:04:06.800Z,49.73
2017-09-23T19:06:09.299Z,49.74
2017-09-23T19:08:11.808Z,49.73
2017-09-23T19:10:14.272Z,49.73
2017-09-23T19:12:16.748Z,49.77
2017-09-23T19:14:20.108Z,49.78
2017-09-23T19:16:22.695Z,49.75
2017-09-23T19:18:25.165Z,49.80
2017-09-23T19:20:27.671Z,49.78
2017-09-23T19:22:30.244Z,49.78
2017-09-23T19:24:32.757Z,49.79
2017-09-23T19:26:35.188Z,49.78
2017-09-23T19:28:37.659Z,49.81
2017-09-23T19:30:40.106Z,49.81
2017-09-23T19:32:42.697Z,49.82
2017-09-23T19:34:45.165Z,49.78
2017-09-23T19:36:47.644Z,49.80
2017-09-23T19:38:50.124Z,49.75
2017-09-23T19:40:52.629Z,49.78
2017-09-23T19:42:55.126Z,49.77
2017-09-23T19:44:57.557Z,49.75
2017-09-23T19:47:00.120Z,49.75
2017-09-23T19:49:02.581Z,49.74
2017-09-23T19:51:05.166Z,49.77
2017-09-23T19:53:07.651Z,49.76
2017-09-23T19:55:10.088Z,49.79
2017-09-23T19:57:12.580Z,49.77
2017-09-23T19:59:15.274Z,49.79
2017-09-23T20:01:17.793Z,49.79
2017-09-23T20:03:20.238Z,49.79
2017-09-23T20:05:22.740Z,49.82
2017-09-23T20:07:25.193Z,49.83
2017-09-23T20:09:27.637Z,49.81
2017-09-23T20:11:30.116Z,49.79
2017-09-23T20:13:32.594Z,49.78
2017-09-23T20:15:35.023Z,49.82
2017-09-23T20:17:37.519Z,49.79
2017-09-23T20:19:40.038Z,49.72
2017-09-23T20:21:42.552Z,49.72
2017-09-23T20:23:45.080Z,49.77
2017-09-23T20:25:47.639Z,49.81
2017-09-23T20:27:50.110Z,49.79
2017-09-23T20:29:52.744Z,49.79
2017-09-23T20:31:55.215Z,49.78
2017-09-23T20:33:57.675Z,49.80
2017-09-23T20:36:00.138Z,49.77
2017-09-23T20:38:02.587Z,49.75
2017-09-23T20:40:05.032Z,49.74
2017-09-23T20:42:07.570Z,49.75
2017-09-23T20:44:10.081Z,49.74
2017-09-23T20:46:12.520Z,49.81
2017-09-23T20:48:15.005Z,49.83
2017-09-23T20:50:17.437Z,49.85
2017-09-23T20:52:19.925Z,49.82
2017-09-23T20:54:22.389Z,49.78
2017-09-23T20:56:24.882Z,49.79
2017-09-23T20:58:27.344Z,49.80
2017-09-23T21:00:29.988Z,49.80
2017-09-23T21:02:32.622Z,49.78
2017-09-23T21:04:35.064Z,49.82
2017-09-23T21:06:37.589Z,49.83
2017-09-23T21:08:40.045Z,49.87
2017-09-23T21:10:42.506Z,49.87
2017-09-23T21:12:45.041Z,49.88
2017-09-23T21:14:47.586Z,49.85
2017-09-23T21:16:50.034Z,49.83
2017-09-23T21:18:52.540Z,49.87
2017-09-23T21:20:54.984Z,49.90
2017-09-23T21:22:57.522Z,49.84
2017-09-23T21:24:59.999Z,49.84
2017-09-23T21:27:02.493Z,49.82
2017-09-23T21:29:04.927Z,49.80
2017-09-23T21:31:07.397Z,49.80
2017-09-23T21:33:09.860Z,49.83
2017-09-23T21:35:12.308Z,49.80
2017-09-23T21:37:14.890Z,49.85
2017-09-23T21:39:17.373Z,49.85
2017-09-23T21:41:19.853Z,49.87
2017-09-23T21:43:22.309Z,49.87
2017-09-23T21:45:24.816Z,49.85
2017-09-23T21:47:27.338Z,49.88
2017-09-23T21:49:29.986Z,49.89
2017-09-23T21:51:32.438Z,49.89
2017-09-23T21:53:34.881Z,49.90
2017-09-23T21:55:37.352Z,49.91
2017-09-23T21:57:39.931Z,49.90
2017-09-23T21:59:42.500Z,49.90
2017-09-23T22:01:45.221Z,49.88
2017-09-23T22:03:47.690Z,49.85
2017-09-23T22:05:50.149Z,49.89
2017-09-23T22:07:53.592Z,49.91
2017-09-23T22:09:56.028Z,49.96
2017-09-23T22:11:58.545Z,49.92
2017-09-23T22:14:01.009Z,49.94
2017-09-23T22:16:03.492Z,49.95
2017-09-23T22:18:06.069Z,49.93
2017-09-23T22:20:08.567Z,49.92
2017-09-23T22:22:11.000Z,49.92
2017-09-23T22:24:13.445Z,49.95
2017-09-23T22:26:15.941Z,50.00
2017-09-23T22:28:18.448Z,50.03
2017-09-23T22:30:20.882Z,50.05
2017-09-23T22:32:23.360Z,50.07
2017-09-23T22:34:25.797Z,50.06
2017-09-23T22:36:28.279Z,50.02
2017-09-23T22:38:30.765Z,49.99
2017-09-23T22:40:33.332Z,50.01
2017-09-23T22:42:35.906Z,50.03
2017-09-23T22:44:38.361Z,50.01
2017-09-23T22:46:40.800Z,50.04
2017-09-23T22:48:43.268Z,50.07
2017-09-23T22:50:45.800Z,50.04
2017-09-23T22:52:48.281Z,50.04
2017-09-23T22:54:50.720Z,50.06
2017-09-23T22:56:53.211Z,50.04
2017-09-23T22:58:55.720Z,50.02
2017-09-23T23:00:58.197Z,50.08
2017-09-23T23:03:00.961Z,50.07
2017-09-23T23:05:03.424Z,50.06
2017-09-23T23:07:05.938Z,50.08
2017-09-23T23:09:08.448Z,50.08
2017-09-23T23:11:10.959Z,50.06
2017-09-23T23:13:13.403Z,50.07
2017-09-23T23:15:15.901Z,50.08
2017-09-23T23:17:18.510Z,50.08
2017-09-23T23:19:20.980Z,50.05
2017-09-23T23:21:23.615Z,50.08
2017-09-23T23:23:26.169Z,50.12
2017-09-23T23:25:28.768Z,50.11
2017-09-23T23:27:31.260Z,50.10
2017-09-23T23:29:33.692Z,50.08
2017-09-23T23:31:36.213Z,50.04
2017-09-23T23:33:38.752Z,50.03
2017-09-23T23:35:41.209Z,50.05
2017-09-23T23:37:43.649Z,49.99
2017-09-23T23:39:46.208Z,50.04
2017-09-23T23:41:48.681Z,50.09
2017-09-23T23:43:51.193Z,50.11
2017-09-23T23:45:53.687Z,50.10
2017-09-23T23:47:56.126Z,50.10
2017-09-23T23:49:58.560Z,50.14
2017-09-23T23:52:01.227Z,50.09
2017-09-23T23:54:03.670Z,50.08
2017-09-23T23:56:06.109Z,50.07
2017-09-23T23:58:08.709Z,50.09
